sensor_id;sensor_type;location;lat;lon;timestamp;P1;durP1;ratioP1;P2;durP2;ratioP2
68225;SDS011;55045;49.410;11.030;2023-03-14T00:00:07;2.15;;;1.00;;
68225;SDS011;55045;49.410;11.030;2023-03-14T00:03:12;1.23;;;1.00;;
68225;SDS011;55045;49.410;11.030;2023-03-14T00:06:17;2.00;;;1.02;;
68225;SDS011;55045;49.410;11.030;2023-03-14T00:09:21;1.02;;;0.60;;
68225;SDS011;55045;49.410;11.030;2023-03-14T00:12:24;1.83;;;0.75;;
68225;SDS011;55045;49.410;11.030;2023-03-14T00:15:27;0.93;;;0.80;;
68225;SDS011;55045;49.410;11.030;2023-03-14T00:18:31;1.08;;;0.70;;
68225;SDS011;55045;49.410;11.030;2023-03-14T00:21:35;1.60;;;0.60;;
68225;SDS011;55045;49.410;11.030;2023-03-14T00:24:39;0.40;;;0.40;;
68225;SDS011;55045;49.410;11.030;2023-03-14T00:27:42;0.40;;;0.40;;
68225;SDS011;55045;49.410;11.030;2023-03-14T00:30:47;0.85;;;0.50;;
68225;SDS011;55045;49.410;11.030;2023-03-14T00:33:51;1.25;;;0.57;;
68225;SDS011;55045;49.410;11.030;2023-03-14T00:36:57;0.45;;;0.45;;
68225;SDS011;55045;49.410;11.030;2023-03-14T00:40:00;0.63;;;0.40;;
68225;SDS011;55045;49.410;11.030;2023-03-14T00:43:07;1.50;;;0.40;;
68225;SDS011;55045;49.410;11.030;2023-03-14T00:46:10;0.80;;;0.40;;
68225;SDS011;55045;49.410;11.030;2023-03-14T00:49:14;2.63;;;0.40;;
68225;SDS011;55045;49.410;11.030;2023-03-14T00:52:19;0.40;;;0.40;;
68225;SDS011;55045;49.410;11.030;2023-03-14T00:55:22;0.30;;;0.30;;
68225;SDS011;55045;49.410;11.030;2023-03-14T00:58:25;0.65;;;0.50;;
68225;SDS011;55045;49.410;11.030;2023-03-14T01:01:28;0.40;;;0.40;;
68225;SDS011;55045;49.410;11.030;2023-03-14T01:04:31;0.38;;;0.38;;
68225;SDS011;55045;49.410;11.030;2023-03-14T01:07:37;0.98;;;0.40;;
68225;SDS011;55045;49.410;11.030;2023-03-14T01:10:41;0.95;;;0.40;;
68225;SDS011;55045;49.410;11.030;2023-03-14T01:13:45;0.43;;;0.30;;
68225;SDS011;55045;49.410;11.030;2023-03-14T01:16:49;0.40;;;0.40;;
68225;SDS011;55045;49.410;11.030;2023-03-14T01:19:54;0.50;;;0.40;;
68225;SDS011;55045;49.410;11.030;2023-03-14T01:22:59;0.40;;;0.40;;
68225;SDS011;55045;49.410;11.030;2023-03-14T01:26:02;0.40;;;0.40;;
68225;SDS011;55045;49.410;11.030;2023-03-14T01:29:05;0.40;;;0.40;;
68225;SDS011;55045;49.410;11.030;2023-03-14T01:32:11;0.45;;;0.30;;
68225;SDS011;55045;49.410;11.030;2023-03-14T01:35:14;1.13;;;0.30;;
68225;SDS011;55045;49.410;11.030;2023-03-14T01:38:19;0.68;;;0.40;;
68225;SDS011;55045;49.410;11.030;2023-03-14T01:41:23;0.30;;;0.30;;
68225;SDS011;55045;49.410;11.030;2023-03-14T01:47:52;0.52;;;0.50;;
68225;SDS011;55045;49.410;11.030;2023-03-14T01:50:55;0.32;;;0.32;;
68225;SDS011;55045;49.410;11.030;2023-03-14T01:54:02;0.40;;;0.40;;
68225;SDS011;55045;49.410;11.030;2023-03-14T01:57:12;0.60;;;0.50;;
68225;SDS011;55045;49.410;11.030;2023-03-14T02:03:24;0.40;;;0.40;;
68225;SDS011;55045;49.410;11.030;2023-03-14T02:06:31;0.40;;;0.40;;
68225;SDS011;55045;49.410;11.030;2023-03-14T02:09:40;0.40;;;0.40;;
68225;SDS011;55045;49.410;11.030;2023-03-14T02:12:48;0.40;;;0.40;;
68225;SDS011;55045;49.410;11.030;2023-03-14T02:16:13;0.40;;;0.40;;
68225;SDS011;55045;49.410;11.030;2023-03-14T02:19:28;0.30;;;0.30;;
68225;SDS011;55045;49.410;11.030;2023-03-14T02:23:09;0.68;;;0.50;;
68225;SDS011;55045;49.410;11.030;2023-03-14T02:26:15;0.40;;;0.40;;
68225;SDS011;55045;49.410;11.030;2023-03-14T02:29:24;2.75;;;0.52;;
68225;SDS011;55045;49.410;11.030;2023-03-14T02:32:29;0.55;;;0.40;;
68225;SDS011;55045;49.410;11.030;2023-03-14T02:35:35;1.83;;;0.40;;
68225;SDS011;55045;49.410;11.030;2023-03-14T02:38:44;0.75;;;0.40;;
68225;SDS011;55045;49.410;11.030;2023-03-14T02:41:54;0.40;;;0.40;;
68225;SDS011;55045;49.410;11.030;2023-03-14T02:44:59;0.65;;;0.30;;
68225;SDS011;55045;49.410;11.030;2023-03-14T02:48:26;0.73;;;0.35;;
68225;SDS011;55045;49.410;11.030;2023-03-14T02:51:31;0.30;;;0.30;;
68225;SDS011;55045;49.410;11.030;2023-03-14T02:54:35;1.38;;;0.40;;
68225;SDS011;55045;49.410;11.030;2023-03-14T02:57:38;0.50;;;0.50;;
68225;SDS011;55045;49.410;11.030;2023-03-14T03:00:43;0.30;;;0.30;;
68225;SDS011;55045;49.410;11.030;2023-03-14T03:03:47;0.88;;;0.40;;
68225;SDS011;55045;49.410;11.030;2023-03-14T03:06:50;0.75;;;0.55;;
68225;SDS011;55045;49.410;11.030;2023-03-14T03:09:53;0.80;;;0.43;;
68225;SDS011;55045;49.410;11.030;2023-03-14T03:12:57;1.88;;;0.45;;
68225;SDS011;55045;49.410;11.030;2023-03-14T03:16:03;0.40;;;0.40;;
68225;SDS011;55045;49.410;11.030;2023-03-14T03:19:08;0.50;;;0.50;;
68225;SDS011;55045;49.410;11.030;2023-03-14T03:22:12;1.25;;;0.45;;
68225;SDS011;55045;49.410;11.030;2023-03-14T03:25:15;1.65;;;0.70;;
68225;SDS011;55045;49.410;11.030;2023-03-14T03:28:20;0.60;;;0.60;;
68225;SDS011;55045;49.410;11.030;2023-03-14T03:31:26;1.88;;;0.70;;
68225;SDS011;55045;49.410;11.030;2023-03-14T03:34:29;2.08;;;1.00;;
68225;SDS011;55045;49.410;11.030;2023-03-14T03:37:34;0.85;;;0.70;;
68225;SDS011;55045;49.410;11.030;2023-03-14T03:40:40;1.90;;;0.77;;
68225;SDS011;55045;49.410;11.030;2023-03-14T03:43:44;1.08;;;0.70;;
68225;SDS011;55045;49.410;11.030;2023-03-14T03:46:51;0.68;;;0.68;;
68225;SDS011;55045;49.410;11.030;2023-03-14T03:49:54;1.48;;;0.60;;
68225;SDS011;55045;49.410;11.030;2023-03-14T03:52:57;0.40;;;0.40;;
68225;SDS011;55045;49.410;11.030;2023-03-14T03:56:01;1.27;;;0.40;;
68225;SDS011;55045;49.410;11.030;2023-03-14T03:59:04;1.20;;;0.60;;
68225;SDS011;55045;49.410;11.030;2023-03-14T04:02:08;0.43;;;0.43;;
68225;SDS011;55045;49.410;11.030;2023-03-14T04:05:12;0.73;;;0.50;;
68225;SDS011;55045;49.410;11.030;2023-03-14T04:08:21;0.47;;;0.47;;
68225;SDS011;55045;49.410;11.030;2023-03-14T04:11:25;0.47;;;0.47;;
68225;SDS011;55045;49.410;11.030;2023-03-14T04:14:37;0.50;;;0.50;;
68225;SDS011;55045;49.410;11.030;2023-03-14T04:17:49;2.47;;;0.55;;
68225;SDS011;55045;49.410;11.030;2023-03-14T04:20:53;2.05;;;0.50;;
68225;SDS011;55045;49.410;11.030;2023-03-14T04:24:02;0.50;;;0.50;;
68225;SDS011;55045;49.410;11.030;2023-03-14T04:27:08;0.52;;;0.52;;
68225;SDS011;55045;49.410;11.030;2023-03-14T04:34:16;0.60;;;0.60;;
68225;SDS011;55045;49.410;11.030;2023-03-14T04:37:27;1.52;;;0.57;;
68225;SDS011;55045;49.410;11.030;2023-03-14T04:40:30;0.68;;;0.50;;
68225;SDS011;55045;49.410;11.030;2023-03-14T04:43:38;1.00;;;0.60;;
68225;SDS011;55045;49.410;11.030;2023-03-14T04:46:44;1.50;;;0.70;;
68225;SDS011;55045;49.410;11.030;2023-03-14T04:49:49;0.68;;;0.60;;
68225;SDS011;55045;49.410;11.030;2023-03-14T04:52:53;0.60;;;0.60;;
68225;SDS011;55045;49.410;11.030;2023-03-14T04:55:56;1.13;;;0.60;;
68225;SDS011;55045;49.410;11.030;2023-03-14T04:59:06;0.50;;;0.50;;
68225;SDS011;55045;49.410;11.030;2023-03-14T05:02:12;1.50;;;0.63;;
68225;SDS011;55045;49.410;11.030;2023-03-14T05:05:37;0.68;;;0.50;;
68225;SDS011;55045;49.410;11.030;2023-03-14T05:08:40;1.10;;;0.55;;
68225;SDS011;55045;49.410;11.030;2023-03-14T05:12:04;0.57;;;0.57;;
68225;SDS011;55045;49.410;11.030;2023-03-14T05:15:15;1.92;;;0.82;;
68225;SDS011;55045;49.410;11.030;2023-03-14T05:18:37;0.50;;;0.50;;
68225;SDS011;55045;49.410;11.030;2023-03-14T05:21:59;0.50;;;0.50;;
68225;SDS011;55045;49.410;11.030;2023-03-14T05:25:22;0.93;;;0.80;;
68225;SDS011;55045;49.410;11.030;2023-03-14T05:28:47;2.20;;;0.80;;
68225;SDS011;55045;49.410;11.030;2023-03-14T05:31:59;1.63;;;0.70;;
68225;SDS011;55045;49.410;11.030;2023-03-14T05:35:14;0.70;;;0.70;;
68225;SDS011;55045;49.410;11.030;2023-03-14T05:38:37;0.82;;;0.77;;
68225;SDS011;55045;49.410;11.030;2023-03-14T05:42:12;0.80;;;0.80;;
68225;SDS011;55045;49.410;11.030;2023-03-14T05:45:30;1.67;;;0.70;;
68225;SDS011;55045;49.410;11.030;2023-03-14T05:48:59;0.68;;;0.68;;
68225;SDS011;55045;49.410;11.030;2023-03-14T05:52:17;0.80;;;0.80;;
68225;SDS011;55045;49.410;11.030;2023-03-14T05:55:45;1.10;;;0.80;;
68225;SDS011;55045;49.410;11.030;2023-03-14T05:58:57;1.00;;;0.90;;
68225;SDS011;55045;49.410;11.030;2023-03-14T06:02:18;0.88;;;0.80;;
68225;SDS011;55045;49.410;11.030;2023-03-14T06:05:31;1.83;;;0.80;;
68225;SDS011;55045;49.410;11.030;2023-03-14T06:08:36;1.33;;;0.68;;
68225;SDS011;55045;49.410;11.030;2023-03-14T06:11:42;0.63;;;0.63;;
68225;SDS011;55045;49.410;11.030;2023-03-14T06:14:46;1.90;;;0.75;;
68225;SDS011;55045;49.410;11.030;2023-03-14T06:17:49;0.85;;;0.80;;
68225;SDS011;55045;49.410;11.030;2023-03-14T06:20:53;1.10;;;0.90;;
68225;SDS011;55045;49.410;11.030;2023-03-14T06:24:00;2.58;;;0.90;;
68225;SDS011;55045;49.410;11.030;2023-03-14T06:27:07;1.58;;;1.00;;
68225;SDS011;55045;49.410;11.030;2023-03-14T06:30:11;1.13;;;1.02;;
68225;SDS011;55045;49.410;11.030;2023-03-14T06:33:14;1.20;;;1.10;;
68225;SDS011;55045;49.410;11.030;2023-03-14T06:36:18;2.15;;;0.95;;
68225;SDS011;55045;49.410;11.030;2023-03-14T06:39:22;1.67;;;1.40;;
68225;SDS011;55045;49.410;11.030;2023-03-14T06:42:36;1.50;;;1.10;;
68225;SDS011;55045;49.410;11.030;2023-03-14T06:45:39;1.20;;;1.10;;
68225;SDS011;55045;49.410;11.030;2023-03-14T06:48:42;0.90;;;0.90;;
68225;SDS011;55045;49.410;11.030;2023-03-14T06:51:46;5.40;;;1.30;;
68225;SDS011;55045;49.410;11.030;2023-03-14T06:54:50;3.83;;;1.20;;
68225;SDS011;55045;49.410;11.030;2023-03-14T06:57:57;1.13;;;1.00;;
68225;SDS011;55045;49.410;11.030;2023-03-14T07:01:01;1.92;;;1.20;;
68225;SDS011;55045;49.410;11.030;2023-03-14T07:04:10;2.55;;;1.40;;
68225;SDS011;55045;49.410;11.030;2023-03-14T07:07:18;2.83;;;1.30;;
68225;SDS011;55045;49.410;11.030;2023-03-14T07:10:21;1.65;;;1.20;;
68225;SDS011;55045;49.410;11.030;2023-03-14T07:13:26;1.90;;;1.42;;
68225;SDS011;55045;49.410;11.030;2023-03-14T07:16:35;3.03;;;2.17;;
68225;SDS011;55045;49.410;11.030;2023-03-14T07:19:38;2.60;;;1.50;;
68225;SDS011;55045;49.410;11.030;2023-03-14T07:22:43;2.40;;;1.60;;
68225;SDS011;55045;49.410;11.030;2023-03-14T07:25:49;1.75;;;1.48;;
68225;SDS011;55045;49.410;11.030;2023-03-14T07:28:56;4.20;;;1.50;;
68225;SDS011;55045;49.410;11.030;2023-03-14T07:31:59;1.90;;;1.60;;
68225;SDS011;55045;49.410;11.030;2023-03-14T07:35:03;3.28;;;1.58;;
68225;SDS011;55045;49.410;11.030;2023-03-14T07:38:10;1.77;;;1.65;;
68225;SDS011;55045;49.410;11.030;2023-03-14T07:41:26;2.88;;;1.45;;
68225;SDS011;55045;49.410;11.030;2023-03-14T07:44:49;3.78;;;1.63;;
68225;SDS011;55045;49.410;11.030;2023-03-14T07:47:52;1.65;;;1.55;;
68225;SDS011;55045;49.410;11.030;2023-03-14T07:50:59;2.13;;;1.58;;
68225;SDS011;55045;49.410;11.030;2023-03-14T07:54:02;3.05;;;1.40;;
68225;SDS011;55045;49.410;11.030;2023-03-14T07:57:05;2.13;;;1.55;;
68225;SDS011;55045;49.410;11.030;2023-03-14T08:00:10;1.60;;;1.50;;
68225;SDS011;55045;49.410;11.030;2023-03-14T08:06:19;1.65;;;1.45;;
68225;SDS011;55045;49.410;11.030;2023-03-14T08:09:23;1.30;;;1.20;;
68225;SDS011;55045;49.410;11.030;2023-03-14T08:12:26;3.45;;;1.65;;
68225;SDS011;55045;49.410;11.030;2023-03-14T08:15:30;1.70;;;1.50;;
68225;SDS011;55045;49.410;11.030;2023-03-14T08:18:33;1.90;;;1.70;;
68225;SDS011;55045;49.410;11.030;2023-03-14T08:21:37;1.52;;;1.10;;
68225;SDS011;55045;49.410;11.030;2023-03-14T08:24:40;1.30;;;1.20;;
68225;SDS011;55045;49.410;11.030;2023-03-14T08:27:43;1.58;;;1.30;;
68225;SDS011;55045;49.410;11.030;2023-03-14T08:30:48;1.95;;;0.95;;
68225;SDS011;55045;49.410;11.030;2023-03-14T08:33:51;1.38;;;0.80;;
68225;SDS011;55045;49.410;11.030;2023-03-14T08:36:55;2.47;;;0.90;;
68225;SDS011;55045;49.410;11.030;2023-03-14T08:39:58;2.00;;;1.10;;
68225;SDS011;55045;49.410;11.030;2023-03-14T08:43:02;1.77;;;1.20;;
68225;SDS011;55045;49.410;11.030;2023-03-14T08:46:06;1.77;;;0.80;;
68225;SDS011;55045;49.410;11.030;2023-03-14T08:49:09;1.42;;;1.00;;
68225;SDS011;55045;49.410;11.030;2023-03-14T08:52:13;1.70;;;0.70;;
68225;SDS011;55045;49.410;11.030;2023-03-14T08:55:17;1.75;;;1.23;;
68225;SDS011;55045;49.410;11.030;2023-03-14T08:58:21;1.27;;;1.10;;
68225;SDS011;55045;49.410;11.030;2023-03-14T09:01:26;3.38;;;1.60;;
68225;SDS011;55045;49.410;11.030;2023-03-14T09:04:30;2.97;;;1.13;;
68225;SDS011;55045;49.410;11.030;2023-03-14T09:07:34;1.48;;;0.70;;
68225;SDS011;55045;49.410;11.030;2023-03-14T09:10:37;2.40;;;1.00;;
68225;SDS011;55045;49.410;11.030;2023-03-14T09:13:41;1.45;;;0.98;;
68225;SDS011;55045;49.410;11.030;2023-03-14T09:16:46;1.02;;;0.80;;
68225;SDS011;55045;49.410;11.030;2023-03-14T09:19:49;1.05;;;0.70;;
68225;SDS011;55045;49.410;11.030;2023-03-14T09:22:52;1.67;;;0.80;;
68225;SDS011;55045;49.410;11.030;2023-03-14T09:25:55;1.40;;;1.02;;
68225;SDS011;55045;49.410;11.030;2023-03-14T09:28:58;3.88;;;0.82;;
68225;SDS011;55045;49.410;11.030;2023-03-14T09:32:03;0.85;;;0.60;;
68225;SDS011;55045;49.410;11.030;2023-03-14T09:35:07;1.67;;;0.65;;
68225;SDS011;55045;49.410;11.030;2023-03-14T09:38:11;0.82;;;0.75;;
68225;SDS011;55045;49.410;11.030;2023-03-14T09:41:15;2.53;;;1.10;;
68225;SDS011;55045;49.410;11.030;2023-03-14T09:44:22;1.65;;;0.93;;
68225;SDS011;55045;49.410;11.030;2023-03-14T09:47:31;3.10;;;0.80;;
68225;SDS011;55045;49.410;11.030;2023-03-14T09:50:40;2.10;;;1.50;;
68225;SDS011;55045;49.410;11.030;2023-03-14T09:53:46;1.42;;;1.08;;
68225;SDS011;55045;49.410;11.030;2023-03-14T09:56:51;2.35;;;1.48;;
68225;SDS011;55045;49.410;11.030;2023-03-14T09:59:54;2.40;;;1.10;;
68225;SDS011;55045;49.410;11.030;2023-03-14T10:03:19;1.92;;;1.48;;
68225;SDS011;55045;49.410;11.030;2023-03-14T10:06:27;1.23;;;0.98;;
68225;SDS011;55045;49.410;11.030;2023-03-14T10:09:32;3.17;;;0.85;;
68225;SDS011;55045;49.410;11.030;2023-03-14T10:12:37;3.75;;;2.05;;
68225;SDS011;55045;49.410;11.030;2023-03-14T10:15:41;3.08;;;1.33;;
68225;SDS011;55045;49.410;11.030;2023-03-14T10:18:51;1.50;;;1.17;;
68225;SDS011;55045;49.410;11.030;2023-03-14T10:21:55;1.42;;;1.15;;
68225;SDS011;55045;49.410;11.030;2023-03-14T10:24:59;3.03;;;1.45;;
68225;SDS011;55045;49.410;11.030;2023-03-14T10:28:04;4.32;;;2.15;;
68225;SDS011;55045;49.410;11.030;2023-03-14T10:34:17;2.25;;;1.05;;
68225;SDS011;55045;49.410;11.030;2023-03-14T10:37:27;2.10;;;1.20;;
68225;SDS011;55045;49.410;11.030;2023-03-14T10:40:31;2.60;;;0.95;;
68225;SDS011;55045;49.410;11.030;2023-03-14T10:43:36;5.93;;;0.70;;
68225;SDS011;55045;49.410;11.030;2023-03-14T10:46:40;1.67;;;0.60;;
68225;SDS011;55045;49.410;11.030;2023-03-14T10:53:26;1.30;;;0.85;;
68225;SDS011;55045;49.410;11.030;2023-03-14T10:56:33;4.30;;;1.27;;
68225;SDS011;55045;49.410;11.030;2023-03-14T10:59:38;4.03;;;0.90;;
68225;SDS011;55045;49.410;11.030;2023-03-14T11:02:49;5.10;;;1.58;;
68225;SDS011;55045;49.410;11.030;2023-03-14T11:06:04;1.35;;;1.02;;
68225;SDS011;55045;49.410;11.030;2023-03-14T11:09:12;1.50;;;1.40;;
68225;SDS011;55045;49.410;11.030;2023-03-14T11:12:27;1.52;;;0.60;;
68225;SDS011;55045;49.410;11.030;2023-03-14T11:15:44;2.33;;;1.02;;
68225;SDS011;55045;49.410;11.030;2023-03-14T11:22:33;3.40;;;0.98;;
68225;SDS011;55045;49.410;11.030;2023-03-14T11:25:43;2.10;;;1.10;;
68225;SDS011;55045;49.410;11.030;2023-03-14T11:28:56;2.00;;;1.25;;
68225;SDS011;55045;49.410;11.030;2023-03-14T11:32:02;3.33;;;1.98;;
68225;SDS011;55045;49.410;11.030;2023-03-14T11:35:20;1.27;;;0.90;;
68225;SDS011;55045;49.410;11.030;2023-03-14T11:38:30;2.25;;;0.85;;
68225;SDS011;55045;49.410;11.030;2023-03-14T11:41:41;2.70;;;1.20;;
68225;SDS011;55045;49.410;11.030;2023-03-14T11:44:47;0.90;;;0.73;;
68225;SDS011;55045;49.410;11.030;2023-03-14T11:47:53;1.65;;;0.65;;
68225;SDS011;55045;49.410;11.030;2023-03-14T11:51:02;1.17;;;1.10;;
68225;SDS011;55045;49.410;11.030;2023-03-14T11:54:14;7.05;;;0.80;;
68225;SDS011;55045;49.410;11.030;2023-03-14T11:57:23;1.55;;;0.60;;
68225;SDS011;55045;49.410;11.030;2023-03-14T12:00:26;1.30;;;0.60;;
68225;SDS011;55045;49.410;11.030;2023-03-14T12:03:32;0.95;;;0.88;;
68225;SDS011;55045;49.410;11.030;2023-03-14T12:06:43;2.92;;;1.33;;
68225;SDS011;55045;49.410;11.030;2023-03-14T12:09:51;3.03;;;1.10;;
68225;SDS011;55045;49.410;11.030;2023-03-14T12:12:56;0.70;;;0.70;;
68225;SDS011;55045;49.410;11.030;2023-03-14T12:16:03;1.73;;;1.20;;
68225;SDS011;55045;49.410;11.030;2023-03-14T12:19:14;3.75;;;2.90;;
68225;SDS011;55045;49.410;11.030;2023-03-14T12:22:29;0.60;;;0.60;;
68225;SDS011;55045;49.410;11.030;2023-03-14T12:25:35;0.50;;;0.50;;
68225;SDS011;55045;49.410;11.030;2023-03-14T12:28:39;0.63;;;0.60;;
68225;SDS011;55045;49.410;11.030;2023-03-14T12:31:46;0.60;;;0.60;;
68225;SDS011;55045;49.410;11.030;2023-03-14T12:34:50;2.78;;;1.92;;
68225;SDS011;55045;49.410;11.030;2023-03-14T12:37:54;5.70;;;2.00;;
68225;SDS011;55045;49.410;11.030;2023-03-14T12:41:03;0.70;;;0.57;;
68225;SDS011;55045;49.410;11.030;2023-03-14T12:47:52;1.33;;;0.90;;
68225;SDS011;55045;49.410;11.030;2023-03-14T12:51:00;2.97;;;2.45;;
68225;SDS011;55045;49.410;11.030;2023-03-14T12:54:19;2.97;;;2.08;;
68225;SDS011;55045;49.410;11.030;2023-03-14T12:57:33;3.17;;;2.05;;
68225;SDS011;55045;49.410;11.030;2023-03-14T13:00:51;1.77;;;0.40;;
68225;SDS011;55045;49.410;11.030;2023-03-14T13:04:02;1.85;;;0.57;;
68225;SDS011;55045;49.410;11.030;2023-03-14T13:07:10;1.40;;;0.80;;
68225;SDS011;55045;49.410;11.030;2023-03-14T13:10:16;2.75;;;0.70;;
68225;SDS011;55045;49.410;11.030;2023-03-14T13:13:24;0.68;;;0.68;;
68225;SDS011;55045;49.410;11.030;2023-03-14T13:16:29;1.33;;;0.90;;
68225;SDS011;55045;49.410;11.030;2023-03-14T13:19:32;1.08;;;0.80;;
68225;SDS011;55045;49.410;11.030;2023-03-14T13:22:36;1.10;;;1.10;;
68225;SDS011;55045;49.410;11.030;2023-03-14T13:25:40;0.93;;;0.90;;
68225;SDS011;55045;49.410;11.030;2023-03-14T13:28:45;0.93;;;0.90;;
68225;SDS011;55045;49.410;11.030;2023-03-14T13:31:49;0.50;;;0.50;;
68225;SDS011;55045;49.410;11.030;2023-03-14T13:34:55;1.70;;;0.80;;
68225;SDS011;55045;49.410;11.030;2023-03-14T13:37:59;2.15;;;0.60;;
68225;SDS011;55045;49.410;11.030;2023-03-14T13:41:12;0.60;;;0.60;;
68225;SDS011;55045;49.410;11.030;2023-03-14T13:44:18;0.90;;;0.50;;
68225;SDS011;55045;49.410;11.030;2023-03-14T13:47:27;1.50;;;0.77;;
68225;SDS011;55045;49.410;11.030;2023-03-14T13:50:31;1.27;;;1.20;;
68225;SDS011;55045;49.410;11.030;2023-03-14T13:53:41;1.48;;;0.60;;
68225;SDS011;55045;49.410;11.030;2023-03-14T13:56:46;1.40;;;0.73;;
68225;SDS011;55045;49.410;11.030;2023-03-14T14:00:02;0.60;;;0.60;;
68225;SDS011;55045;49.410;11.030;2023-03-14T14:03:09;1.00;;;0.65;;
68225;SDS011;55045;49.410;11.030;2023-03-14T14:06:25;0.77;;;0.77;;
68225;SDS011;55045;49.410;11.030;2023-03-14T14:09:35;0.70;;;0.70;;
68225;SDS011;55045;49.410;11.030;2023-03-14T14:12:42;0.70;;;0.70;;
68225;SDS011;55045;49.410;11.030;2023-03-14T14:15:53;1.48;;;1.00;;
68225;SDS011;55045;49.410;11.030;2023-03-14T14:18:57;0.60;;;0.60;;
68225;SDS011;55045;49.410;11.030;2023-03-14T14:22:04;2.40;;;0.80;;
68225;SDS011;55045;49.410;11.030;2023-03-14T14:25:12;1.33;;;0.68;;
68225;SDS011;55045;49.410;11.030;2023-03-14T14:28:17;0.70;;;0.70;;
68225;SDS011;55045;49.410;11.030;2023-03-14T14:31:27;0.60;;;0.60;;
68225;SDS011;55045;49.410;11.030;2023-03-14T14:34:37;1.30;;;1.20;;
68225;SDS011;55045;49.410;11.030;2023-03-14T14:37:43;0.70;;;0.70;;
68225;SDS011;55045;49.410;11.030;2023-03-14T14:40:48;0.80;;;0.80;;
68225;SDS011;55045;49.410;11.030;2023-03-14T14:43:53;0.70;;;0.70;;
68225;SDS011;55045;49.410;11.030;2023-03-14T14:46:58;0.88;;;0.88;;
68225;SDS011;55045;49.410;11.030;2023-03-14T14:50:03;0.90;;;0.85;;
68225;SDS011;55045;49.410;11.030;2023-03-14T14:53:19;1.60;;;1.00;;
68225;SDS011;55045;49.410;11.030;2023-03-14T14:56:26;1.17;;;1.05;;
68225;SDS011;55045;49.410;11.030;2023-03-14T14:59:30;1.65;;;0.90;;
68225;SDS011;55045;49.410;11.030;2023-03-14T15:02:37;1.35;;;1.25;;
68225;SDS011;55045;49.410;11.030;2023-03-14T15:05:46;2.75;;;1.67;;
68225;SDS011;55045;49.410;11.030;2023-03-14T15:08:49;2.03;;;1.50;;
68225;SDS011;55045;49.410;11.030;2023-03-14T15:11:53;1.33;;;1.20;;
68225;SDS011;55045;49.410;11.030;2023-03-14T15:14:56;1.45;;;1.10;;
68225;SDS011;55045;49.410;11.030;2023-03-14T15:18:04;1.23;;;1.10;;
68225;SDS011;55045;49.410;11.030;2023-03-14T15:21:15;2.88;;;1.50;;
68225;SDS011;55045;49.410;11.030;2023-03-14T15:24:19;2.53;;;1.40;;
68225;SDS011;55045;49.410;11.030;2023-03-14T15:27:23;1.90;;;1.50;;
68225;SDS011;55045;49.410;11.030;2023-03-14T15:30:27;2.17;;;1.50;;
68225;SDS011;55045;49.410;11.030;2023-03-14T15:33:32;2.25;;;1.45;;
68225;SDS011;55045;49.410;11.030;2023-03-14T15:36:35;1.77;;;1.40;;
68225;SDS011;55045;49.410;11.030;2023-03-14T15:39:40;2.13;;;1.50;;
68225;SDS011;55045;49.410;11.030;2023-03-14T15:42:43;1.70;;;1.20;;
68225;SDS011;55045;49.410;11.030;2023-03-14T15:45:46;2.55;;;1.60;;
68225;SDS011;55045;49.410;11.030;2023-03-14T15:48:52;1.95;;;1.40;;
68225;SDS011;55045;49.410;11.030;2023-03-14T15:51:56;2.75;;;1.40;;
68225;SDS011;55045;49.410;11.030;2023-03-14T15:54:59;2.25;;;1.15;;
68225;SDS011;55045;49.410;11.030;2023-03-14T15:58:02;2.75;;;1.15;;
68225;SDS011;55045;49.410;11.030;2023-03-14T16:01:06;1.70;;;1.10;;
68225;SDS011;55045;49.410;11.030;2023-03-14T16:04:12;4.53;;;1.73;;
68225;SDS011;55045;49.410;11.030;2023-03-14T16:07:15;1.30;;;0.95;;
68225;SDS011;55045;49.410;11.030;2023-03-14T16:10:19;1.55;;;0.93;;
68225;SDS011;55045;49.410;11.030;2023-03-14T16:13:22;1.30;;;0.90;;
68225;SDS011;55045;49.410;11.030;2023-03-14T16:16:25;1.08;;;0.65;;
68225;SDS011;55045;49.410;11.030;2023-03-14T16:19:31;1.05;;;1.00;;
68225;SDS011;55045;49.410;11.030;2023-03-14T16:22:34;1.20;;;0.80;;
68225;SDS011;55045;49.410;11.030;2023-03-14T16:25:37;3.05;;;1.00;;
68225;SDS011;55045;49.410;11.030;2023-03-14T16:28:41;2.47;;;0.85;;
68225;SDS011;55045;49.410;11.030;2023-03-14T16:34:16;1.45;;;0.80;;
68225;SDS011;55045;49.410;11.030;2023-03-14T16:37:19;2.10;;;1.00;;
68225;SDS011;55045;49.410;11.030;2023-03-14T16:40:23;2.25;;;0.82;;
68225;SDS011;55045;49.410;11.030;2023-03-14T16:43:26;1.50;;;0.90;;
68225;SDS011;55045;49.410;11.030;2023-03-14T16:46:30;2.88;;;1.02;;
68225;SDS011;55045;49.410;11.030;2023-03-14T16:49:35;1.77;;;1.10;;
68225;SDS011;55045;49.410;11.030;2023-03-14T16:52:38;3.60;;;0.90;;
68225;SDS011;55045;49.410;11.030;2023-03-14T16:55:42;6.32;;;0.90;;
68225;SDS011;55045;49.410;11.030;2023-03-14T16:58:45;2.20;;;1.00;;
68225;SDS011;55045;49.410;11.030;2023-03-14T17:01:49;1.58;;;1.10;;
68225;SDS011;55045;49.410;11.030;2023-03-14T17:04:53;1.90;;;1.10;;
68225;SDS011;55045;49.410;11.030;2023-03-14T17:07:57;3.83;;;1.23;;
68225;SDS011;55045;49.410;11.030;2023-03-14T17:11:00;4.13;;;1.70;;
68225;SDS011;55045;49.410;11.030;2023-03-14T17:14:04;2.13;;;1.52;;
68225;SDS011;55045;49.410;11.030;2023-03-14T17:17:08;3.40;;;1.20;;
68225;SDS011;55045;49.410;11.030;2023-03-14T17:20:12;4.60;;;2.13;;
68225;SDS011;55045;49.410;11.030;2023-03-14T17:23:16;1.45;;;1.00;;
68225;SDS011;55045;49.410;11.030;2023-03-14T17:26:19;2.40;;;1.00;;
68225;SDS011;55045;49.410;11.030;2023-03-14T17:29:23;1.40;;;1.10;;
68225;SDS011;55045;49.410;11.030;2023-03-14T17:32:26;1.35;;;1.00;;
68225;SDS011;55045;49.410;11.030;2023-03-14T17:35:31;7.38;;;3.00;;
68225;SDS011;55045;49.410;11.030;2023-03-14T17:38:35;2.13;;;1.50;;
68225;SDS011;55045;49.410;11.030;2023-03-14T17:41:38;5.40;;;2.25;;
68225;SDS011;55045;49.410;11.030;2023-03-14T17:44:41;6.50;;;1.90;;
68225;SDS011;55045;49.410;11.030;2023-03-14T17:47:45;1.73;;;1.30;;
68225;SDS011;55045;49.410;11.030;2023-03-14T17:50:50;4.10;;;1.48;;
68225;SDS011;55045;49.410;11.030;2023-03-14T17:53:53;3.90;;;1.70;;
68225;SDS011;55045;49.410;11.030;2023-03-14T17:56:57;3.63;;;1.25;;
68225;SDS011;55045;49.410;11.030;2023-03-14T18:00:00;1.90;;;1.20;;
68225;SDS011;55045;49.410;11.030;2023-03-14T18:03:08;2.97;;;1.30;;
68225;SDS011;55045;49.410;11.030;2023-03-14T18:06:13;3.15;;;1.30;;
68225;SDS011;55045;49.410;11.030;2023-03-14T18:09:18;2.17;;;1.17;;
68225;SDS011;55045;49.410;11.030;2023-03-14T18:12:22;3.42;;;1.60;;
68225;SDS011;55045;49.410;11.030;2023-03-14T18:15:25;3.45;;;1.30;;
68225;SDS011;55045;49.410;11.030;2023-03-14T18:18:28;2.30;;;1.50;;
68225;SDS011;55045;49.410;11.030;2023-03-14T18:21:33;1.30;;;1.20;;
68225;SDS011;55045;49.410;11.030;2023-03-14T18:24:37;3.50;;;2.10;;
68225;SDS011;55045;49.410;11.030;2023-03-14T18:27:40;2.80;;;2.55;;
68225;SDS011;55045;49.410;11.030;2023-03-14T18:30:43;2.35;;;1.77;;
68225;SDS011;55045;49.410;11.030;2023-03-14T18:33:53;2.75;;;1.90;;
68225;SDS011;55045;49.410;11.030;2023-03-14T18:36:59;3.78;;;1.88;;
68225;SDS011;55045;49.410;11.030;2023-03-14T18:40:04;1.67;;;1.45;;
68225;SDS011;55045;49.410;11.030;2023-03-14T18:43:11;4.90;;;1.87;;
68225;SDS011;55045;49.410;11.030;2023-03-14T18:46:14;2.38;;;1.52;;
68225;SDS011;55045;49.410;11.030;2023-03-14T18:49:18;2.05;;;1.33;;
68225;SDS011;55045;49.410;11.030;2023-03-14T18:52:23;2.78;;;1.08;;
68225;SDS011;55045;49.410;11.030;2023-03-14T18:55:27;2.80;;;1.70;;